Time,TemperatureF,DewpointF,PressureIn,WindDirection,WindDirectionDegrees,WindSpeedMPH,WindSpeedGustMPH,Humidity,HourlyPrecipIn,Conditions,Clouds,dailyrainin,SoftwareType,DateUTC
2013-04-12 00:26:00,48.5,43.0,29.87,WSW,254,0.0,0.0,80,0.00,,,0.00,weatherlink.com 1.10,2013-04-12 07:26:00,
2013-04-12 00:56:00,48.6,43.0,29.87,SSE,163,1.0,4.0,80,0.00,,,0.00,weatherlink.com 1.10,2013-04-12 07:56:00,
2013-04-12 01:41:00,47.6,42.0,29.88,SSE,163,0.0,0.0,82,0.00,,,0.00,weatherlink.com 1.10,2013-04-12 08:41:00,
2013-04-12 02:11:00,47.4,43.0,29.88,SSE,163,0.0,1.0,83,0.00,,,0.00,weatherlink.com 1.10,2013-04-12 09:11:00,
2013-04-12 02:26:00,47.2,42.0,29.88,SSE,163,0.0,2.0,83,0.00,,,0.00,weatherlink.com 1.10,2013-04-12 09:26:00,
2013-04-12 02:41:00,46.9,42.0,29.88,SSE,163,0.0,2.0,84,0.00,,,0.00,weatherlink.com 1.10,2013-04-12 09:41:00,
2013-04-12 02:56:00,46.4,42.0,29.88,SSE,163,0.0,0.0,84,0.00,,,0.00,weatherlink.com 1.10,2013-04-12 09:56:00,
2013-04-12 03:11:00,46.1,42.0,29.87,SSE,163,0.0,1.0,85,0.00,,,0.00,weatherlink.com 1.10,2013-04-12 10:11:00,
2013-04-12 03:26:00,46.0,42.0,29.87,SSE,163,0.0,3.0,85,0.00,,,0.00,weatherlink.com 1.10,2013-04-12 10:26:00,
2013-04-12 03:41:00,45.8,42.0,29.86,SSE,163,0.0,1.0,85,0.00,,,0.00,weatherlink.com 1.10,2013-04-12 10:41:00,
2013-04-12 03:56:00,45.6,42.0,29.86,SSE,163,0.0,2.0,86,0.00,,,0.00,weatherlink.com 1.10,2013-04-12 10:56:00,
2013-04-12 04:11:00,45.4,42.0,29.86,SSE,163,0.0,0.0,86,0.00,,,0.00,weatherlink.com 1.10,2013-04-12 11:11:00,
2013-04-12 04:42:00,44.5,41.0,29.86,SSE,163,0.0,0.0,88,0.00,,,0.00,weatherlink.com 1.10,2013-04-12 11:42:00,
2013-04-12 05:11:00,44.7,42.0,29.87,SSE,163,0.0,1.0,89,0.00,,,0.00,weatherlink.com 1.10,2013-04-12 12:11:00,
2013-04-12 05:26:00,44.5,42.0,29.87,SSE,163,0.0,0.0,89,0.00,,,0.00,weatherlink.com 1.10,2013-04-12 12:26:00,
2013-04-12 05:41:00,44.3,41.0,29.87,SSE,163,0.0,0.0,89,0.00,,,0.00,weatherlink.com 1.10,2013-04-12 12:41:00,
2013-04-12 05:56:00,43.8,41.0,29.87,SSE,163,0.0,0.0,89,0.00,,,0.00,weatherlink.com 1.10,2013-04-12 12:56:00,
2013-04-12 06:12:00,43.7,41.0,29.87,SSE,163,0.0,0.0,89,0.00,,,0.00,weatherlink.com 1.10,2013-04-12 13:12:00,
2013-04-12 06:27:00,43.3,41.0,29.88,SSE,163,0.0,0.0,90,0.00,,,0.00,weatherlink.com 1.10,2013-04-12 13:27:00,
2013-04-12 06:42:00,43.2,41.0,29.88,SSE,163,0.0,0.0,90,0.00,,,0.00,weatherlink.com 1.10,2013-04-12 13:42:00,
2013-04-12 06:57:00,43.4,41.0,29.88,SSE,163,0.0,1.0,91,0.00,,,0.00,weatherlink.com 1.10,2013-04-12 13:57:00,
2013-04-12 07:12:00,43.5,41.0,29.89,SSE,163,0.0,0.0,91,0.00,,,0.00,weatherlink.com 1.10,2013-04-12 14:12:00,
2013-04-12 07:27:00,44.6,43.0,29.89,SSE,163,0.0,0.0,93,0.00,,,0.00,weatherlink.com 1.10,2013-04-12 14:27:00,
2013-04-12 07:42:00,46.9,45.0,29.90,SSE,163,0.0,1.0,93,0.00,,,0.00,weatherlink.com 1.10,2013-04-12 14:42:00,
2013-04-12 07:57:00,49.3,47.0,29.90,SSE,163,0.0,2.0,90,0.00,,,0.00,weatherlink.com 1.10,2013-04-12 14:57:00,
2013-04-12 08:12:00,51.7,48.0,29.91,SSE,163,0.0,1.0,86,0.00,,,0.00,weatherlink.com 1.10,2013-04-12 15:12:00,
2013-04-12 08:27:00,53.5,48.0,29.91,NNE,23,0.0,3.0,81,0.00,,,0.00,weatherlink.com 1.10,2013-04-12 15:27:00,
2013-04-12 08:42:00,54.9,49.0,29.91,ENE,59,1.0,3.0,79,0.00,,,0.00,weatherlink.com 1.10,2013-04-12 15:42:00,
2013-04-12 08:57:00,54.8,48.0,29.91,NW,304,0.0,3.0,77,0.00,,,0.00,weatherlink.com 1.10,2013-04-12 15:57:00,
2013-04-12 09:12:00,56.3,48.0,29.91,NNW,336,2.0,3.0,73,0.00,,,0.00,weatherlink.com 1.10,2013-04-12 16:12:00,
2013-04-12 09:27:00,56.9,48.0,29.91,NNE,23,3.0,4.0,73,0.00,,,0.00,weatherlink.com 1.10,2013-04-12 16:27:00,
2013-04-12 09:42:00,59.0,48.0,29.91,NNE,24,0.0,3.0,68,0.00,,,0.00,weatherlink.com 1.10,2013-04-12 16:42:00,
2013-04-12 09:57:00,59.5,49.0,29.91,NNE,15,2.0,4.0,68,0.00,,,0.00,weatherlink.com 1.10,2013-04-12 16:57:00,
2013-04-12 10:12:00,60.2,49.0,29.90,NE,40,4.0,4.0,66,0.00,,,0.00,weatherlink.com 1.10,2013-04-12 17:12:00,
2013-04-12 10:27:00,61.4,49.0,29.90,East,92,3.0,3.0,64,0.00,,,0.00,weatherlink.com 1.10,2013-04-12 17:27:00,
2013-04-12 10:42:00,62.2,49.0,29.90,ENE,59,2.0,4.0,63,0.00,,,0.00,weatherlink.com 1.10,2013-04-12 17:42:00,
2013-04-12 10:57:00,61.9,49.0,29.90,WNW,302,3.0,4.0,63,0.00,,,0.00,weatherlink.com 1.10,2013-04-12 17:57:00,
2013-04-12 11:12:00,62.8,49.0,29.90,NW,325,1.0,6.0,62,0.00,,,0.00,weatherlink.com 1.10,2013-04-12 18:12:00,
2013-04-12 12:27:00,64.6,52.0,29.88,ESE,115,2.0,7.0,65,0.00,,,0.00,weatherlink.com 1.10,2013-04-12 19:27:00,
2013-04-12 12:43:00,66.2,53.0,29.88,ENE,63,5.0,6.0,62,0.00,,,0.00,weatherlink.com 1.10,2013-04-12 19:43:00,
2013-04-12 12:58:00,66.9,51.0,29.87,NNE,31,7.0,7.0,58,0.00,,,0.00,weatherlink.com 1.10,2013-04-12 19:58:00,
2013-04-12 13:13:00,67.6,52.0,29.87,North,355,6.0,8.0,58,0.00,,,0.00,weatherlink.com 1.10,2013-04-12 20:13:00,
2013-04-12 13:28:00,68.3,52.0,29.87,NNE,22,4.0,9.0,56,0.00,,,0.00,weatherlink.com 1.10,2013-04-12 20:28:00,
2013-04-12 13:43:00,68.7,52.0,29.86,North,360,3.0,10.0,55,0.00,,,0.00,weatherlink.com 1.10,2013-04-12 20:43:00,
2013-04-12 13:58:00,69.0,52.0,29.86,NW,317,4.0,8.0,55,0.00,,,0.00,weatherlink.com 1.10,2013-04-12 20:58:00,
2013-04-12 14:13:00,70.4,52.0,29.85,North,360,5.0,8.0,52,0.00,,,0.00,weatherlink.com 1.10,2013-04-12 21:13:00,
2013-04-12 14:28:00,70.0,52.0,29.85,NW,311,5.0,9.0,53,0.00,,,0.00,weatherlink.com 1.10,2013-04-12 21:28:00,
2013-04-12 14:43:00,70.8,52.0,29.84,NNE,15,4.0,8.0,52,0.00,,,0.00,weatherlink.com 1.10,2013-04-12 21:43:00,
2013-04-12 14:58:00,72.5,52.0,29.83,NNE,28,7.0,7.0,48,0.00,,,0.00,weatherlink.com 1.10,2013-04-12 21:58:00,
2013-04-12 15:13:00,71.8,51.0,29.83,NE,45,9.0,9.0,48,0.00,,,0.00,weatherlink.com 1.10,2013-04-12 22:13:00,
2013-04-12 15:28:00,72.4,51.0,29.83,NNW,341,3.0,8.0,48,0.00,,,0.00,weatherlink.com 1.10,2013-04-12 22:28:00,
2013-04-12 15:43:00,72.4,51.0,29.82,WNW,294,5.0,9.0,48,0.00,,,0.00,weatherlink.com 1.10,2013-04-12 22:43:00,
2013-04-12 15:58:00,72.2,51.0,29.82,North,355,4.0,8.0,48,0.00,,,0.00,weatherlink.com 1.10,2013-04-12 22:58:00,
2013-04-12 16:13:00,71.1,51.0,29.82,WNW,293,6.0,8.0,49,0.00,,,0.00,weatherlink.com 1.10,2013-04-12 23:13:00,
2013-04-12 16:28:00,71.0,50.0,29.82,NNW,328,4.0,11.0,47,0.00,,,0.00,weatherlink.com 1.10,2013-04-12 23:28:00,
2013-04-12 16:43:00,70.5,50.0,29.82,North,355,9.0,12.0,48,0.00,,,0.00,weatherlink.com 1.10,2013-04-12 23:43:00,
2013-04-12 16:58:00,69.3,47.0,29.83,NNW,334,7.0,11.0,45,0.00,,,0.00,weatherlink.com 1.10,2013-04-12 23:58:00,
2013-04-12 17:13:00,68.7,43.0,29.83,WNW,302,8.0,10.0,40,0.00,,,0.00,weatherlink.com 1.10,2013-04-13 00:13:00,
2013-04-12 17:28:00,69.6,42.0,29.82,WSW,254,0.0,9.0,37,0.00,,,0.00,weatherlink.com 1.10,2013-04-13 00:28:00,
2013-04-12 17:43:00,70.2,44.0,29.82,North,355,2.0,6.0,39,0.00,,,0.00,weatherlink.com 1.10,2013-04-13 00:43:00,
2013-04-12 17:58:00,68.5,44.0,29.82,North,355,4.0,9.0,41,0.00,,,0.00,weatherlink.com 1.10,2013-04-13 00:58:00,
2013-04-12 18:13:00,67.5,43.0,29.83,WNW,285,5.0,8.0,42,0.00,,,0.00,weatherlink.com 1.10,2013-04-13 01:13:00,
2013-04-12 18:28:00,67.6,43.0,29.83,NW,306,5.0,5.0,41,0.00,,,0.00,weatherlink.com 1.10,2013-04-13 01:28:00,
2013-04-12 18:43:00,66.0,44.0,29.83,NNW,343,3.0,9.0,46,0.00,,,0.00,weatherlink.com 1.10,2013-04-13 01:43:00,
2013-04-12 18:58:00,63.6,44.0,29.83,NNW,344,3.0,6.0,50,0.00,,,0.00,weatherlink.com 1.10,2013-04-13 01:58:00,
2013-04-12 19:13:00,61.8,43.0,29.83,NNW,344,3.0,5.0,51,0.00,,,0.00,weatherlink.com 1.10,2013-04-13 02:13:00,
2013-04-12 19:28:00,61.0,43.0,29.83,NNW,344,0.0,4.0,51,0.00,,,0.00,weatherlink.com 1.10,2013-04-13 02:28:00,
2013-04-12 19:43:00,60.1,43.0,29.83,NW,304,5.0,6.0,54,0.00,,,0.00,weatherlink.com 1.10,2013-04-13 02:43:00,
2013-04-12 19:58:00,58.9,42.0,29.83,WNW,300,1.0,4.0,54,0.00,,,0.00,weatherlink.com 1.10,2013-04-13 02:58:00,
2013-04-12 20:13:00,57.8,42.0,29.83,WNW,302,1.0,3.0,56,0.00,,,0.00,weatherlink.com 1.10,2013-04-13 03:13:00,
2013-04-12 20:28:00,57.0,42.0,29.84,WNW,298,1.0,3.0,57,0.00,,,0.00,weatherlink.com 1.10,2013-04-13 03:28:00,
2013-04-12 20:43:00,56.3,42.0,29.85,WNW,298,0.0,1.0,59,0.00,,,0.00,weatherlink.com 1.10,2013-04-13 03:43:00,
2013-04-12 20:58:00,55.7,42.0,29.86,WNW,298,1.0,1.0,61,0.00,,,0.00,weatherlink.com 1.10,2013-04-13 03:58:00,
2013-04-12 21:13:00,55.2,42.0,29.86,WNW,298,0.0,0.0,62,0.00,,,0.00,weatherlink.com 1.10,2013-04-13 04:13:00,
2013-04-12 21:28:00,55.0,42.0,29.86,WNW,285,0.0,2.0,63,0.00,,,0.00,weatherlink.com 1.10,2013-04-13 04:28:00,
2013-04-12 21:43:00,54.7,42.0,29.88,WNW,292,2.0,6.0,62,0.00,,,0.00,weatherlink.com 1.10,2013-04-13 04:43:00,
2013-04-12 21:58:00,53.8,43.0,29.88,WSW,247,1.0,5.0,66,0.00,,,0.00,weatherlink.com 1.10,2013-04-13 04:58:00,
2013-04-12 22:13:00,52.8,43.0,29.89,WNW,284,0.0,5.0,69,0.00,,,0.00,weatherlink.com 1.10,2013-04-13 05:13:00,
2013-04-12 22:28:00,52.3,43.0,29.89,NW,317,1.0,4.0,70,0.00,,,0.00,weatherlink.com 1.10,2013-04-13 05:28:00,
2013-04-12 22:43:00,52.1,43.0,29.89,NNW,334,1.0,3.0,71,0.00,,,0.00,weatherlink.com 1.10,2013-04-13 05:43:00,
2013-04-12 22:58:00,51.8,43.0,29.89,WNW,294,1.0,6.0,72,0.00,,,0.00,weatherlink.com 1.10,2013-04-13 05:58:00,
2013-04-12 23:13:00,51.4,43.0,29.89,WNW,294,0.0,2.0,73,0.00,,,0.00,weatherlink.com 1.10,2013-04-13 06:13:00,
2013-04-12 23:28:00,51.1,43.0,29.89,WNW,294,0.0,1.0,74,0.00,,,0.00,weatherlink.com 1.10,2013-04-13 06:28:00,
2013-04-12 23:58:00,50.3,43.0,29.90,WNW,294,0.0,1.0,75,0.00,,,0.00,weatherlink.com 1.10,2013-04-13 06:58:00,